createdAt,value
2018-02-06T00:02:20.422Z,30.52
2018-02-06T00:04:47.941Z,31.95
2018-02-06T00:07:15.501Z,34.13
2018-02-06T00:09:43.030Z,24.92
2018-02-06T00:12:10.554Z,40.05
2018-02-06T00:14:38.101Z,35.00
2018-02-06T00:17:05.618Z,36.40
2018-02-06T00:19:33.174Z,35.50
2018-02-06T00:22:00.853Z,35.33
2018-02-06T00:24:28.378Z,35.55
2018-02-06T00:26:55.900Z,31.65
2018-02-06T00:29:23.470Z,38.25
2018-02-06T00:31:50.989Z,35.63
2018-02-06T00:34:18.510Z,33.47
2018-02-06T00:36:46.049Z,30.88
2018-02-06T00:39:13.571Z,36.03
2018-02-06T00:41:41.169Z,33.40
2018-02-06T00:44:08.885Z,37.40
2018-02-06T00:46:36.393Z,36.88
2018-02-06T00:49:03.934Z,40.60
2018-02-06T00:51:31.477Z,29.98
2018-02-06T00:53:58.990Z,29.00
2018-02-06T00:56:26.509Z,32.15
2018-02-06T00:58:54.069Z,32.40
2018-02-06T01:01:21.598Z,37.67
2018-02-06T01:03:49.110Z,41.42
2018-02-06T01:06:17.008Z,38.15
2018-02-06T01:08:44.520Z,45.00
2018-02-06T01:11:12.041Z,48.20
2018-02-06T01:13:39.572Z,45.55
2018-02-06T01:16:07.097Z,38.58
2018-02-06T01:18:34.620Z,38.17
2018-02-06T01:21:02.161Z,26.67
2018-02-06T01:23:29.682Z,34.85
2018-02-06T01:25:57.233Z,36.58
2018-02-06T01:28:24.782Z,32.92
2018-02-06T01:30:52.311Z,33.55
2018-02-06T01:33:19.841Z,37.75
2018-02-06T01:35:47.394Z,42.70
2018-02-06T01:38:14.984Z,34.53
2018-02-06T01:40:42.516Z,51.53
2018-02-06T01:43:10.061Z,40.63
2018-02-06T01:45:37.585Z,48.97
2018-02-06T01:48:06.049Z,44.30
2018-02-06T01:50:33.581Z,37.70
2018-02-06T01:53:01.127Z,36.60
2018-02-06T01:55:28.650Z,35.70
2018-02-06T01:57:56.189Z,35.05
2018-02-06T02:00:23.714Z,34.78
2018-02-06T02:02:51.239Z,37.90
2018-02-06T02:05:18.777Z,41.33
2018-02-06T02:07:46.297Z,38.53
2018-02-06T02:10:13.813Z,40.60
2018-02-06T02:12:41.749Z,43.85
2018-02-06T02:15:09.268Z,34.97
2018-02-06T02:17:36.786Z,46.78
2018-02-06T02:20:04.334Z,46.60
2018-02-06T02:22:31.847Z,34.33
2018-02-06T02:24:59.453Z,39.63
2018-02-06T02:27:26.992Z,42.78
2018-02-06T02:29:54.497Z,37.30
2018-02-06T02:32:22.015Z,42.50
2018-02-06T02:34:49.562Z,37.55
2018-02-06T02:37:17.076Z,38.45
2018-02-06T02:39:44.593Z,40.63
2018-02-06T04:40:13.582Z,47.30
2018-02-06T04:42:41.093Z,39.42
2018-02-06T04:45:08.641Z,42.80
2018-02-06T04:47:36.167Z,48.60
2018-02-06T04:50:03.689Z,49.63
2018-02-06T04:52:31.235Z,57.38
2018-02-06T04:54:58.758Z,41.25
2018-02-06T04:57:26.266Z,44.10
2018-02-06T04:59:53.812Z,46.50
2018-02-06T05:02:21.800Z,43.63
2018-02-06T05:04:49.425Z,47.88
2018-02-06T05:07:17.327Z,53.75
2018-02-06T05:09:44.849Z,53.90
2018-02-06T05:12:12.401Z,66.10
2018-02-06T05:14:39.962Z,54.65
2018-02-06T05:17:07.482Z,49.10
2018-02-06T05:19:35.025Z,45.17
2018-02-06T05:22:02.541Z,46.22
2018-02-06T05:24:30.086Z,46.83
2018-02-06T05:26:57.638Z,45.58
2018-02-06T05:29:25.159Z,43.25
2018-02-06T05:31:52.701Z,57.65
2018-02-06T05:34:20.216Z,54.90
2018-02-06T05:36:47.758Z,46.78
2018-02-06T05:39:15.289Z,53.17
2018-02-06T05:41:42.821Z,46.00
2018-02-06T05:44:10.373Z,50.22
2018-02-06T05:46:37.894Z,56.45
2018-02-06T05:49:05.433Z,51.60
2018-02-06T05:51:32.973Z,49.45
2018-02-06T05:54:00.490Z,46.47
2018-02-06T05:56:28.037Z,42.20
2018-02-06T05:58:55.553Z,43.60
2018-02-06T06:01:23.090Z,48.10
2018-02-06T06:03:50.637Z,43.70
2018-02-06T06:06:18.157Z,49.67
2018-02-06T06:08:45.700Z,50.40
2018-02-06T06:11:13.232Z,50.47
2018-02-06T06:13:40.779Z,53.25
2018-02-06T06:16:08.330Z,45.67
2018-02-06T06:18:35.838Z,52.08
2018-02-06T06:21:03.390Z,49.33
2018-02-06T06:23:30.922Z,61.00
2018-02-06T06:25:58.465Z,40.60
2018-02-06T06:28:26.027Z,48.55
2018-02-06T06:30:53.541Z,57.50
2018-02-06T06:33:21.084Z,51.72
2018-02-06T06:35:48.601Z,49.38
2018-02-06T06:38:16.141Z,52.60
2018-02-06T06:40:43.997Z,50.22
2018-02-06T06:43:11.522Z,47.85
2018-02-06T06:45:39.071Z,49.65
2018-02-06T06:48:06.581Z,50.22
2018-02-06T06:50:34.293Z,50.35
2018-02-06T06:53:01.929Z,50.05
2018-02-06T06:55:29.448Z,56.72
2018-02-06T06:57:57.003Z,57.88
2018-02-06T07:00:24.542Z,66.25
2018-02-06T07:02:52.316Z,53.22
2018-02-06T07:05:19.847Z,58.67
2018-02-06T07:07:47.365Z,49.75
2018-02-06T07:10:14.918Z,52.85
2018-02-06T07:12:42.442Z,55.35
2018-02-06T07:15:10.288Z,46.63
2018-02-06T07:17:37.810Z,45.80
2018-02-06T07:20:05.330Z,52.25
2018-02-06T07:22:32.873Z,48.65
2018-02-06T07:25:00.389Z,52.47
2018-02-06T07:27:28.281Z,58.75
2018-02-06T07:29:55.795Z,48.53
2018-02-06T07:32:23.314Z,64.80
2018-02-06T07:34:50.849Z,51.05
2018-02-06T07:37:18.369Z,47.53
2018-02-06T07:39:46.077Z,47.10
2018-02-06T07:42:13.597Z,49.90
2018-02-06T07:44:41.118Z,53.58
2018-02-06T07:47:08.678Z,51.08
2018-02-06T07:49:36.646Z,59.00
2018-02-06T07:52:04.389Z,59.67
2018-02-06T07:54:31.910Z,58.35
2018-02-06T07:56:59.425Z,54.20
2018-02-06T07:59:26.977Z,48.05
2018-02-06T08:01:54.499Z,48.90
2018-02-06T08:04:22.190Z,65.82
2018-02-06T08:06:49.705Z,53.10
2018-02-06T08:09:17.214Z,49.15
2018-02-06T08:11:44.761Z,54.25
2018-02-06T08:14:12.299Z,51.53
2018-02-06T08:16:39.874Z,50.80
2018-02-06T08:19:07.395Z,71.70
2018-02-06T08:21:34.911Z,99.95
2018-02-06T08:24:02.462Z,129.45
2018-02-06T08:26:29.977Z,85.82
2018-02-06T08:28:57.774Z,62.70
2018-02-06T08:31:25.302Z,53.20
2018-02-06T08:33:52.822Z,46.33
2018-02-06T08:36:20.371Z,52.47
2018-02-06T08:38:47.893Z,54.90
2018-02-06T08:41:15.453Z,53.90
2018-02-06T08:43:42.971Z,62.05
2018-02-06T08:46:10.489Z,60.05
2018-02-06T08:48:38.038Z,50.00
2018-02-06T08:51:05.562Z,42.80
2018-02-06T08:53:33.273Z,55.75
2018-02-06T08:56:00.802Z,53.90
2018-02-06T08:58:28.326Z,48.50
2018-02-06T09:00:55.877Z,50.97
2018-02-06T09:03:23.410Z,56.95
2018-02-06T09:05:51.166Z,50.10
2018-02-06T09:08:18.681Z,48.22
2018-02-06T09:10:46.198Z,44.95
2018-02-06T09:13:13.746Z,208.18
2018-02-06T09:15:41.261Z,53.65
2018-02-06T09:18:08.961Z,52.40
2018-02-06T09:20:36.646Z,51.97
2018-02-06T09:23:04.174Z,57.88
2018-02-06T09:25:31.718Z,52.40
2018-02-06T09:27:59.239Z,49.08
2018-02-06T09:30:26.814Z,47.45
2018-02-06T09:32:54.334Z,48.15
2018-02-06T09:35:21.845Z,60.67
2018-02-06T09:37:49.389Z,54.33
2018-02-06T09:40:16.917Z,56.80
2018-02-06T09:42:44.677Z,49.63
2018-02-06T09:45:12.190Z,56.35
2018-02-06T09:47:39.710Z,59.00
2018-02-06T09:50:07.275Z,53.22
2018-02-06T09:52:34.793Z,45.88
2018-02-06T09:55:02.454Z,55.78
2018-02-06T09:57:29.974Z,55.97
2018-02-06T09:59:57.493Z,61.28
2018-02-06T10:02:25.037Z,58.10
2018-02-06T10:04:52.563Z,62.35
2018-02-06T10:07:20.246Z,63.30
2018-02-06T10:09:47.761Z,64.90
2018-02-06T10:12:15.278Z,71.93
2018-02-06T10:14:42.838Z,52.75
2018-02-06T10:17:10.371Z,63.03
2018-02-06T10:19:37.922Z,58.25
2018-02-06T10:22:05.441Z,61.65
2018-02-06T10:24:33.031Z,60.95
2018-02-06T10:27:00.572Z,65.57
2018-02-06T10:29:28.099Z,72.97
2018-02-06T10:31:55.846Z,79.53
2018-02-06T10:34:23.356Z,55.88
2018-02-06T10:36:50.878Z,53.35
2018-02-06T10:39:18.425Z,56.20
2018-02-06T10:41:45.942Z,55.75
2018-02-06T10:44:13.841Z,54.85
2018-02-06T10:46:41.358Z,69.68
2018-02-06T10:49:08.879Z,69.00
2018-02-06T10:51:36.449Z,71.87
2018-02-06T10:54:03.969Z,58.00
2018-02-06T10:56:31.606Z,59.45
2018-02-06T10:58:59.129Z,55.95
2018-02-06T11:01:26.645Z,45.15
2018-02-06T11:03:54.197Z,48.55
2018-02-06T11:06:21.718Z,53.63
2018-02-06T11:08:49.432Z,47.72
2018-02-06T11:11:16.955Z,58.45
2018-02-06T11:13:44.469Z,64.47
2018-02-06T11:16:12.022Z,57.97
2018-02-06T11:18:39.545Z,55.40
2018-02-06T11:21:07.235Z,57.57
2018-02-06T11:23:34.756Z,57.97
2018-02-06T11:26:02.277Z,67.03
2018-02-06T11:28:29.820Z,49.90
2018-02-06T11:30:57.384Z,52.17
2018-02-06T11:33:25.125Z,48.73
2018-02-06T11:35:52.650Z,56.77
2018-02-06T11:38:20.174Z,51.80
2018-02-06T11:40:47.722Z,61.10
2018-02-06T11:43:15.246Z,51.30
2018-02-06T11:45:43.030Z,57.70
2018-02-06T11:48:10.559Z,50.60
2018-02-06T11:50:38.086Z,54.70
2018-02-06T11:53:05.651Z,54.20
2018-02-06T11:55:33.173Z,60.97
2018-02-06T11:58:00.781Z,61.20
2018-02-06T12:00:28.298Z,55.27
2018-02-06T12:02:55.837Z,62.17
2018-02-06T12:05:23.386Z,51.33
2018-02-06T12:07:50.924Z,63.70
2018-02-06T12:10:18.479Z,54.33
2018-02-06T12:12:45.992Z,57.63
2018-02-06T12:15:13.958Z,52.97
2018-02-06T12:17:41.522Z,50.83
2018-02-06T12:20:09.050Z,76.60
2018-02-06T12:22:36.822Z,62.10
2018-02-06T12:25:04.346Z,70.37
2018-02-06T12:27:31.863Z,59.93
2018-02-06T12:29:59.422Z,64.60
2018-02-06T12:32:26.940Z,51.70
2018-02-06T12:34:54.522Z,59.70
2018-02-06T12:37:22.046Z,58.40
2018-02-06T12:39:50.577Z,57.53
2018-02-06T12:42:18.128Z,61.90
2018-02-06T12:44:45.649Z,67.27
2018-02-06T12:47:13.481Z,62.17
2018-02-06T12:49:41.089Z,74.17
2018-02-06T12:52:08.653Z,67.43
2018-02-06T12:54:36.210Z,56.77
2018-02-06T12:57:03.755Z,70.05
2018-02-06T13:01:59.049Z,64.68
2018-02-06T13:04:26.575Z,66.32
2018-02-06T13:06:54.129Z,64.57
2018-02-06T13:09:21.642Z,57.47
2018-02-06T13:11:49.433Z,63.00
2018-02-06T13:14:16.957Z,67.87
2018-02-06T13:16:44.497Z,65.85
2018-02-06T13:19:12.124Z,74.85
2018-02-06T13:21:39.655Z,67.03
2018-02-06T13:24:07.601Z,80.50
2018-02-06T13:26:35.119Z,69.03
2018-02-06T13:29:02.681Z,69.12
2018-02-06T13:31:30.242Z,61.45
2018-02-06T13:33:57.781Z,65.72
2018-02-06T13:36:25.347Z,60.58
2018-02-06T13:38:52.902Z,69.80
2018-02-06T13:41:20.421Z,67.15
2018-02-06T13:43:47.986Z,57.08
2018-02-06T13:46:15.498Z,73.12
2018-02-06T13:48:43.260Z,75.15
2018-02-06T13:51:10.781Z,69.93
2018-02-06T13:53:38.305Z,63.00
2018-02-06T13:56:05.852Z,62.95
2018-02-06T13:58:33.378Z,69.78
2018-02-06T14:01:01.141Z,57.60
2018-02-06T14:03:28.662Z,58.33
2018-02-06T14:05:56.210Z,65.97
2018-02-06T14:08:23.750Z,65.43
2018-02-06T14:10:51.273Z,56.92
2018-02-06T14:13:18.934Z,60.78
2018-02-06T14:15:46.461Z,77.45
2018-02-06T14:18:13.983Z,68.70
2018-02-06T14:20:41.531Z,52.80
2018-02-06T14:23:09.047Z,59.85
2018-02-06T14:25:37.059Z,68.45
2018-02-06T14:28:04.582Z,62.83
2018-02-06T14:30:32.111Z,50.40
2018-02-06T14:32:59.658Z,56.45
2018-02-06T14:35:27.194Z,59.50
2018-02-06T14:37:54.952Z,65.35
2018-02-06T14:40:22.482Z,55.25
2018-02-06T14:42:49.997Z,63.72
2018-02-06T14:45:17.550Z,56.58
2018-02-06T14:47:45.193Z,89.40
2018-02-06T14:50:12.934Z,64.72
2018-02-06T14:52:40.451Z,50.33
2018-02-06T14:55:07.984Z,52.22
2018-02-06T14:57:35.529Z,54.30
2018-02-06T15:00:03.047Z,54.60
2018-02-06T15:02:30.938Z,54.10
2018-02-06T15:04:58.516Z,67.65
2018-02-06T15:07:26.045Z,53.15
2018-02-06T15:09:53.590Z,61.50
2018-02-06T15:12:21.117Z,53.38
2018-02-06T15:14:48.973Z,59.08
2018-02-06T15:17:16.555Z,62.80
2018-02-06T15:19:44.087Z,56.05
2018-02-06T15:22:11.943Z,54.92
2018-02-06T15:24:39.599Z,71.12
2018-02-06T15:27:07.366Z,61.72
2018-02-06T15:29:34.913Z,67.18
2018-02-06T15:32:02.589Z,62.88
2018-02-06T15:34:30.170Z,71.78
2018-02-06T15:36:57.705Z,85.45
2018-02-06T15:39:25.286Z,74.00
2018-02-06T15:41:52.805Z,75.43
2018-02-06T15:44:20.353Z,69.40
2018-02-06T15:46:48.113Z,58.97
2018-02-06T15:49:15.634Z,58.50
2018-02-06T15:51:43.193Z,62.97
2018-02-06T15:54:11.127Z,62.35
2018-02-06T15:56:38.793Z,62.28
2018-02-06T15:59:06.630Z,65.97
2018-02-06T16:01:34.236Z,61.50
2018-02-06T16:04:02.169Z,53.00
2018-02-06T16:06:30.718Z,69.30
2018-02-06T16:08:58.373Z,65.18
2018-02-06T16:11:26.377Z,64.85
2018-02-06T16:13:53.918Z,58.42
2018-02-06T16:16:21.932Z,64.50
2018-02-06T16:18:49.697Z,64.37
2018-02-06T16:21:17.294Z,69.50
2018-02-06T16:23:45.334Z,64.62
2018-02-06T16:26:13.196Z,64.32
2018-02-06T16:28:41.674Z,74.30
2018-02-06T16:31:09.544Z,68.07
2018-02-06T16:33:37.133Z,65.70
2018-02-06T16:36:05.069Z,61.20
2018-02-06T16:38:32.990Z,64.00
2018-02-06T16:41:01.030Z,64.32
2018-02-06T16:43:28.873Z,71.62
2018-02-06T16:45:57.539Z,66.35
2018-02-06T16:48:25.527Z,68.10
2018-02-06T16:50:53.393Z,72.05
2018-02-06T16:53:21.874Z,61.88
2018-02-06T16:55:49.706Z,54.75
2018-02-06T16:58:17.997Z,55.88
2018-02-06T17:00:45.987Z,56.30
2018-02-06T17:03:13.854Z,69.75
2018-02-06T17:05:42.126Z,66.95
2018-02-06T17:08:09.995Z,72.10
2018-02-06T17:10:37.861Z,61.35
2018-02-06T17:13:06.140Z,63.58
2018-02-06T17:15:34.311Z,61.88
2018-02-06T17:18:02.279Z,67.12
2018-02-06T17:20:30.123Z,68.47
2018-02-06T17:22:58.018Z,62.47
2018-02-06T17:25:26.084Z,53.53
2018-02-06T17:27:53.950Z,61.30
2018-02-06T17:30:22.022Z,73.10
2018-02-06T17:32:49.857Z,62.08
2018-02-06T17:35:17.755Z,56.72
2018-02-06T17:37:45.628Z,57.25
2018-02-06T17:40:13.692Z,61.17
2018-02-06T17:42:41.451Z,66.03
2018-02-06T17:45:09.038Z,59.08
2018-02-06T17:47:36.574Z,62.20
2018-02-06T17:50:04.395Z,76.40
2018-02-06T17:52:32.206Z,66.40
2018-02-06T17:55:00.070Z,64.15
2018-02-06T17:57:28.450Z,82.03
2018-02-06T17:59:56.228Z,76.40
2018-02-06T18:02:24.153Z,80.75
2018-02-06T18:04:52.055Z,72.53
2018-02-06T18:07:20.020Z,71.28
2018-02-06T18:09:47.855Z,77.85
2018-02-06T18:12:15.650Z,68.47
2018-02-06T18:14:44.846Z,77.12
2018-02-06T18:17:13.226Z,63.72
2018-02-06T18:19:41.399Z,62.60
2018-02-06T18:22:09.372Z,61.33
2018-02-06T18:24:37.258Z,63.70
2018-02-06T18:27:05.168Z,60.22
2018-02-06T18:29:33.035Z,66.80
2018-02-06T18:32:01.146Z,76.95
2018-02-06T18:34:29.211Z,66.97
2018-02-06T18:36:57.410Z,74.22
2018-02-06T18:39:25.354Z,67.25
2018-02-06T18:41:53.325Z,82.10
2018-02-06T18:44:21.498Z,72.05
2018-02-06T18:46:49.365Z,71.68
2018-02-06T18:49:17.194Z,71.60
2018-02-06T18:51:45.061Z,66.37
2018-02-06T18:54:12.963Z,74.32
2018-02-06T18:56:41.159Z,75.45
2018-02-06T18:59:09.145Z,79.47
2018-02-06T19:01:37.075Z,79.22
2018-02-06T19:04:05.018Z,67.97
2018-02-06T19:06:32.886Z,75.53
2018-02-06T19:09:01.493Z,80.68
2018-02-06T19:11:30.538Z,74.78
2018-02-06T19:13:59.333Z,67.45
2018-02-06T19:16:28.369Z,77.03
2018-02-06T19:18:56.338Z,79.20
2018-02-06T19:21:24.818Z,77.90
2018-02-06T19:23:52.788Z,94.97
2018-02-06T19:26:21.248Z,97.68
2018-02-06T19:28:49.238Z,89.25
2018-02-06T19:31:17.520Z,78.10
2018-02-06T19:33:45.400Z,74.68
2018-02-06T19:36:13.356Z,78.22
2018-02-06T19:38:41.216Z,67.07
2018-02-06T19:41:09.186Z,74.82
2018-02-06T19:43:37.153Z,88.15
2018-02-06T19:46:05.175Z,64.87
2018-02-06T19:48:33.193Z,80.32
2018-02-06T19:51:01.059Z,80.07
2018-02-06T19:53:30.360Z,72.20
2018-02-06T19:55:58.329Z,67.53
2018-02-06T19:58:26.624Z,72.37
2018-02-06T20:00:54.473Z,67.72
2018-02-06T20:03:22.339Z,78.22
2018-02-06T20:05:50.409Z,71.62
2018-02-06T20:08:18.789Z,77.00
2018-02-06T20:10:46.962Z,72.95
2018-02-06T20:13:14.828Z,82.35
2018-02-06T20:15:42.898Z,83.62
2018-02-06T20:18:11.901Z,82.07
2018-02-06T20:20:40.476Z,80.40
2018-02-06T20:23:08.444Z,81.82
2018-02-06T20:25:37.017Z,84.57
2018-02-06T20:28:05.940Z,89.18
2018-02-06T20:30:33.886Z,77.45
2018-02-06T20:33:01.754Z,90.07
2018-02-06T20:35:30.234Z,60.85
2018-02-06T20:37:58.073Z,77.53
2018-02-06T20:40:25.967Z,70.10
2018-02-06T20:42:55.163Z,77.32
2018-02-06T20:45:23.031Z,76.35
2018-02-06T20:47:52.230Z,77.57
2018-02-06T20:50:20.200Z,82.12
2018-02-06T20:52:48.474Z,75.32
2018-02-06T20:55:16.443Z,78.18
2018-02-06T20:57:44.924Z,81.97
2018-02-06T21:00:13.616Z,83.40
2018-02-06T21:02:41.641Z,98.22
2018-02-06T21:05:12.927Z,72.12
2018-02-06T21:07:40.895Z,81.90
2018-02-06T21:10:09.339Z,73.07
2018-02-06T21:12:37.846Z,89.45
2018-02-06T21:15:05.734Z,79.68
2018-02-06T21:17:33.561Z,81.50
2018-02-06T21:20:01.471Z,93.78
2018-02-06T21:22:29.395Z,80.20
2018-02-06T21:24:57.701Z,83.65
2018-02-06T21:27:25.567Z,80.47
2018-02-06T21:29:53.436Z,80.28
2018-02-06T21:32:21.327Z,76.45
2018-02-06T21:34:49.270Z,81.03
2018-02-06T21:37:17.566Z,75.32
2018-02-06T21:39:46.230Z,88.47
2018-02-06T21:42:14.917Z,89.80
2018-02-06T21:44:42.845Z,72.05
2018-02-06T21:47:11.571Z,74.93
2018-02-06T21:49:40.052Z,66.60
2018-02-06T21:52:07.919Z,88.75
2018-02-06T21:54:35.801Z,85.25
2018-02-06T21:57:04.265Z,75.60
2018-02-06T21:59:32.095Z,72.80
2018-02-06T22:02:00.327Z,85.78
2018-02-06T22:04:28.173Z,77.80
2018-02-06T22:06:56.039Z,77.97
2018-02-06T22:09:24.078Z,80.60
2018-02-06T22:11:52.082Z,79.45
2018-02-06T22:14:20.020Z,76.62
2018-02-06T22:16:47.984Z,84.53
2018-02-06T22:19:16.817Z,87.05
2018-02-06T22:21:45.288Z,93.00
2018-02-06T22:24:13.154Z,81.85
2018-02-06T22:26:41.536Z,73.93
2018-02-06T22:29:09.500Z,91.63
2018-02-06T22:31:37.778Z,83.40
2018-02-06T22:34:05.957Z,105.47
2018-02-06T22:36:33.919Z,87.82
2018-02-06T22:39:02.093Z,89.95
2018-02-06T22:41:29.961Z,96.97
2018-02-06T22:43:59.716Z,92.25
2018-02-06T22:46:29.587Z,116.22
2018-02-06T22:48:57.449Z,81.93
2018-02-06T22:51:25.247Z,96.00
2018-02-06T22:53:53.898Z,71.00
2018-02-06T22:56:21.766Z,78.00
2018-02-06T22:58:49.633Z,88.43
2018-02-06T23:01:17.369Z,75.97
2018-02-06T23:03:45.420Z,104.45
2018-02-06T23:06:13.232Z,73.20
2018-02-06T23:08:40.977Z,78.25
2018-02-06T23:11:08.627Z,77.12
2018-02-06T23:13:36.663Z,81.60
2018-02-06T23:16:04.495Z,81.90
2018-02-06T23:18:32.247Z,81.93
2018-02-06T23:20:59.815Z,73.28
2018-02-06T23:23:27.477Z,82.57
2018-02-06T23:25:55.043Z,74.97
2018-02-06T23:28:23.068Z,82.82
2018-02-06T23:30:50.641Z,86.78
2018-02-06T23:33:18.181Z,84.28
2018-02-06T23:35:45.888Z,75.35
2018-02-06T23:38:13.427Z,80.38
2018-02-06T23:40:41.246Z,100.95
2018-02-06T23:43:08.832Z,77.47
2018-02-06T23:45:36.370Z,76.20
2018-02-06T23:48:04.209Z,83.97
2018-02-06T23:50:31.872Z,94.53
2018-02-06T23:53:00.024Z,87.32
2018-02-06T23:55:27.546Z,77.32
2018-02-06T23:57:55.073Z,85.03
